createdAt,value
2018-12-10T00:00:28.068Z,59.90
2018-12-10T00:03:01.593Z,60.30
2018-12-10T00:05:29.822Z,59.50
2018-12-10T00:07:58.059Z,61.50
2018-12-10T00:10:26.295Z,63.40
2018-12-10T00:12:54.554Z,64.90
2018-12-10T00:15:22.770Z,66.80
2018-12-10T00:17:50.992Z,67.70
2018-12-10T00:20:19.267Z,66.10
2018-12-10T00:22:47.495Z,65.50
2018-12-10T00:25:15.708Z,65.70
2018-12-10T00:27:43.925Z,66.50
2018-12-10T00:30:18.747Z,64.80
2018-12-10T00:32:46.962Z,65.30
2018-12-10T00:35:15.248Z,63.50
2018-12-10T00:37:43.446Z,60.90
2018-12-10T00:40:11.654Z,60.20
2018-12-10T00:42:39.880Z,60.30
2018-12-10T00:45:08.415Z,59.00
2018-12-10T00:47:36.640Z,58.30
2018-12-10T00:50:05.448Z,58.80
2018-12-10T00:52:33.606Z,60.10
2018-12-10T00:55:01.801Z,57.80
2018-12-10T00:57:29.971Z,57.20
2018-12-10T00:59:58.242Z,58.30
2018-12-10T01:02:26.426Z,63.20
2018-12-10T01:04:54.590Z,67.40
2018-12-10T01:07:22.819Z,70.70
2018-12-10T01:09:51.039Z,72.80
2018-12-10T01:12:19.241Z,76.10
2018-12-10T01:14:47.498Z,78.90
2018-12-10T01:17:15.691Z,82.90
2018-12-10T01:19:43.918Z,83.40
2018-12-10T01:22:12.276Z,85.80
2018-12-10T01:24:40.599Z,86.60
2018-12-10T01:27:08.735Z,85.50
2018-12-10T01:29:36.930Z,88.50
2018-12-10T01:32:05.154Z,88.30
2018-12-10T01:34:33.331Z,89.60
2018-12-10T01:37:01.550Z,87.90
2018-12-10T01:39:29.751Z,88.20
2018-12-10T01:41:57.988Z,88.00
2018-12-10T01:44:26.223Z,88.00
2018-12-10T01:46:54.384Z,87.90
2018-12-10T01:49:22.578Z,86.20
2018-12-10T01:51:50.802Z,85.80
2018-12-10T01:54:19.019Z,85.70
2018-12-10T01:56:47.248Z,85.00
2018-12-10T01:59:15.446Z,80.60
2018-12-10T02:01:43.819Z,78.90
2018-12-10T02:04:12.038Z,78.90
2018-12-10T02:06:40.173Z,79.60
2018-12-10T02:09:08.367Z,77.40
2018-12-10T02:11:36.594Z,77.10
2018-12-10T02:14:04.790Z,75.60
2018-12-10T02:16:33.026Z,77.60
2018-12-10T02:19:01.230Z,74.10
2018-12-10T02:21:29.414Z,73.10
2018-12-10T02:23:57.619Z,74.40
2018-12-10T02:26:25.883Z,74.40
2018-12-10T02:28:59.472Z,69.00
2018-12-10T02:31:27.662Z,71.80
2018-12-10T02:33:55.858Z,71.80
2018-12-10T02:36:24.796Z,69.80
2018-12-10T02:38:52.974Z,70.30
2018-12-10T02:41:21.232Z,69.00
2018-12-10T02:43:49.373Z,69.10
2018-12-10T02:46:17.530Z,68.30
2018-12-10T02:48:45.713Z,71.30
2018-12-10T02:51:14.121Z,69.90
2018-12-10T02:53:42.486Z,66.50
2018-12-10T02:56:10.720Z,68.80
2018-12-10T02:58:38.920Z,69.80
2018-12-10T03:01:07.179Z,67.70
2018-12-10T03:03:35.250Z,66.90
2018-12-10T03:06:03.479Z,66.20
2018-12-10T03:08:31.716Z,66.90
2018-12-10T03:10:59.940Z,66.40
2018-12-10T03:13:28.196Z,64.50
2018-12-10T03:15:56.360Z,67.80
2018-12-10T03:18:24.586Z,68.30
2018-12-10T03:20:53.057Z,67.00
2018-12-10T03:23:21.401Z,67.10
2018-12-10T03:25:49.585Z,69.60
2018-12-10T03:28:17.774Z,74.00
2018-12-10T03:30:46.013Z,76.00
2018-12-10T03:33:14.192Z,78.70
2018-12-10T03:35:42.423Z,79.30
2018-12-10T03:38:10.652Z,81.90
2018-12-10T03:40:38.805Z,83.10
2018-12-10T03:43:07.008Z,83.90
2018-12-10T03:45:35.234Z,85.00
2018-12-10T03:48:03.432Z,81.20
2018-12-10T03:50:31.747Z,82.00
2018-12-10T03:52:59.883Z,82.80
2018-12-10T03:55:28.114Z,81.10
2018-12-10T03:57:56.414Z,80.50
2018-12-10T04:00:24.665Z,80.50
2018-12-10T04:02:52.848Z,81.60
2018-12-10T04:05:21.080Z,82.40
2018-12-10T04:07:49.293Z,83.50
2018-12-10T04:10:17.485Z,83.80
2018-12-10T04:12:45.719Z,83.70
2018-12-10T04:15:13.972Z,84.20
2018-12-10T04:17:42.199Z,83.10
2018-12-10T04:20:10.465Z,84.80
2018-12-10T04:22:38.760Z,85.00
2018-12-10T04:25:06.978Z,85.40
2018-12-10T04:27:35.070Z,86.20
2018-12-10T04:30:03.356Z,85.40
2018-12-10T04:32:31.506Z,87.40
2018-12-10T04:34:59.703Z,87.80
2018-12-10T04:37:27.902Z,89.80
2018-12-10T04:39:56.074Z,89.40
2018-12-10T04:42:24.363Z,89.80
2018-12-10T04:44:52.581Z,89.20
2018-12-10T04:47:20.771Z,88.00
2018-12-10T04:49:48.961Z,88.50
2018-12-10T04:52:17.215Z,86.70
2018-12-10T04:54:45.300Z,87.00
2018-12-10T04:57:13.564Z,87.70
2018-12-10T04:59:41.774Z,86.10
2018-12-10T05:02:09.959Z,84.00
2018-12-10T05:04:38.199Z,85.30
2018-12-10T05:07:06.390Z,82.40
2018-12-10T05:09:34.543Z,83.20
2018-12-10T05:12:02.747Z,83.00
2018-12-10T05:14:30.967Z,82.70
2018-12-10T05:16:59.119Z,83.60
2018-12-10T05:19:27.358Z,82.60
2018-12-10T05:21:55.551Z,83.80
2018-12-10T05:24:23.789Z,83.00
2018-12-10T05:26:51.931Z,80.40
2018-12-10T05:29:20.145Z,80.20
2018-12-10T05:31:48.520Z,80.50
2018-12-10T05:34:16.775Z,79.80
2018-12-10T05:36:45.030Z,80.80
2018-12-10T05:39:13.266Z,79.60
2018-12-10T05:41:41.489Z,80.00
2018-12-10T05:44:09.740Z,80.50
2018-12-10T05:46:37.978Z,80.60
2018-12-10T05:49:06.138Z,80.70
2018-12-10T05:51:34.415Z,79.50
2018-12-10T05:54:02.660Z,80.30
2018-12-10T05:56:30.906Z,81.70
2018-12-10T05:58:59.078Z,80.70
2018-12-10T06:01:27.326Z,80.60
2018-12-10T06:03:55.748Z,80.50
2018-12-10T06:06:24.015Z,80.90
2018-12-10T06:08:52.263Z,81.70
2018-12-10T06:11:20.499Z,81.30
2018-12-10T06:13:48.731Z,80.30
2018-12-10T06:16:16.943Z,82.30
2018-12-10T06:18:45.146Z,84.30
2018-12-10T06:21:13.433Z,84.30
2018-12-10T06:23:41.681Z,85.00
2018-12-10T06:26:09.933Z,85.70
2018-12-10T06:28:38.174Z,85.60
2018-12-10T06:31:06.418Z,86.00
2018-12-10T06:33:34.662Z,86.10
2018-12-10T06:36:02.895Z,86.60
2018-12-10T06:38:31.094Z,87.40
2018-12-10T06:40:59.324Z,85.80
2018-12-10T06:43:27.555Z,86.70
2018-12-10T06:45:55.759Z,86.90
2018-12-10T06:48:23.999Z,86.90
2018-12-10T06:50:52.279Z,87.70
2018-12-10T06:53:20.489Z,88.30
2018-12-10T06:55:48.763Z,87.80
2018-12-10T06:58:17.006Z,87.30
2018-12-10T07:00:45.242Z,86.30
2018-12-10T07:03:13.415Z,87.00
2018-12-10T07:05:41.807Z,87.40
2018-12-10T07:08:09.995Z,87.40
2018-12-10T07:10:38.209Z,87.40
2018-12-10T07:13:06.437Z,87.90
2018-12-10T07:15:34.636Z,89.90
2018-12-10T07:18:02.858Z,89.70
2018-12-10T07:20:31.109Z,89.40
2018-12-10T07:22:59.331Z,89.10
2018-12-10T07:25:27.607Z,90.10
2018-12-10T07:27:55.839Z,90.90
2018-12-10T07:30:24.023Z,92.20
2018-12-10T07:32:52.225Z,91.40
2018-12-10T07:35:20.494Z,91.10
2018-12-10T07:37:48.805Z,90.80
2018-12-10T07:40:17.040Z,91.30
2018-12-10T07:42:45.210Z,91.50
2018-12-10T07:45:13.469Z,91.70
2018-12-10T07:47:41.781Z,90.70
2018-12-10T07:50:10.162Z,91.40
2018-12-10T07:52:38.354Z,92.10
2018-12-10T07:55:06.609Z,92.00
2018-12-10T07:57:34.887Z,91.80
2018-12-10T08:00:03.216Z,91.80
2018-12-10T08:02:31.427Z,91.20
2018-12-10T08:04:59.650Z,89.40
2018-12-10T08:07:27.886Z,89.80
2018-12-10T08:09:56.153Z,90.30
2018-12-10T08:12:24.371Z,88.30
2018-12-10T08:14:52.656Z,86.20
2018-12-10T08:17:20.915Z,84.90
2018-12-10T08:19:49.183Z,83.00
2018-12-10T08:22:17.390Z,81.40
2018-12-10T08:24:45.715Z,78.50
2018-12-10T08:27:13.983Z,79.30
2018-12-10T08:29:42.320Z,77.10
2018-12-10T08:32:10.760Z,74.90
2018-12-10T08:34:44.889Z,77.00
2018-12-10T08:37:09.342Z,76.70
2018-12-10T08:39:37.599Z,73.50
2018-12-10T08:42:05.859Z,73.80
2018-12-10T08:44:34.081Z,74.60
2018-12-10T08:47:02.356Z,73.50
2018-12-10T08:49:30.591Z,70.80
2018-12-10T08:51:58.813Z,71.30
2018-12-10T08:54:27.086Z,74.10
2018-12-10T08:56:55.330Z,76.70
2018-12-10T08:59:23.730Z,81.90
2018-12-10T09:01:52.001Z,83.50
2018-12-10T09:04:20.224Z,83.60
2018-12-10T09:06:48.407Z,83.20
2018-12-10T09:09:16.581Z,84.50
2018-12-10T09:11:44.806Z,87.00
2018-12-10T09:14:13.101Z,86.70
2018-12-10T09:16:41.362Z,87.60
2018-12-10T09:19:09.601Z,87.10
2018-12-10T09:21:37.891Z,86.60
2018-12-10T09:24:06.147Z,87.00
2018-12-10T09:26:34.314Z,87.70
2018-12-10T09:29:02.497Z,87.00
2018-12-10T09:31:30.729Z,85.90
2018-12-10T09:33:58.932Z,83.40
2018-12-10T09:36:27.143Z,83.80
2018-12-10T09:38:55.366Z,84.20
2018-12-10T09:41:23.618Z,83.80
2018-12-10T09:43:51.910Z,85.20
2018-12-10T09:46:27.325Z,84.50
2018-12-10T09:48:50.426Z,85.20
2018-12-10T09:51:18.644Z,82.20
2018-12-10T09:53:47.114Z,82.00
2018-12-10T09:56:15.327Z,77.40
2018-12-10T09:58:43.620Z,77.70
2018-12-10T10:01:11.933Z,77.40
2018-12-10T10:03:40.102Z,76.50
2018-12-10T10:06:08.329Z,75.40
2018-12-10T10:08:36.574Z,75.50
2018-12-10T10:11:04.904Z,74.90
2018-12-10T10:13:33.178Z,75.10
2018-12-10T10:16:01.289Z,73.50
2018-12-10T10:18:29.470Z,73.30
2018-12-10T10:20:57.735Z,74.40
2018-12-10T10:23:25.965Z,76.10
2018-12-10T10:25:54.181Z,74.90
2018-12-10T10:28:22.409Z,76.60
2018-12-10T10:30:50.682Z,75.00
2018-12-10T10:33:18.886Z,72.60
2018-12-10T10:35:47.212Z,67.50
2018-12-10T10:38:15.482Z,67.70
2018-12-10T10:40:43.675Z,68.10
2018-12-10T10:43:11.967Z,68.50
2018-12-10T10:45:40.227Z,64.80
2018-12-10T10:48:08.466Z,66.10
2018-12-10T10:50:36.638Z,62.30
2018-12-10T10:53:04.978Z,60.90
2018-12-10T10:55:33.231Z,63.30
2018-12-10T10:58:01.508Z,59.80
2018-12-10T11:00:35.238Z,55.90
2018-12-10T11:03:09.547Z,58.40
2018-12-10T11:05:37.795Z,56.10
2018-12-10T11:08:06.058Z,53.60
2018-12-10T11:10:34.444Z,56.90
2018-12-10T11:13:02.669Z,50.10
2018-12-10T11:15:30.906Z,50.70
2018-12-10T11:17:59.179Z,52.20
2018-12-10T11:20:27.402Z,49.20
2018-12-10T11:22:55.678Z,49.90
2018-12-10T11:25:23.940Z,50.30
2018-12-10T11:27:52.119Z,54.30
2018-12-10T11:30:20.310Z,60.50
2018-12-10T11:32:48.500Z,65.80
2018-12-10T11:35:16.800Z,67.60
2018-12-10T11:37:45.165Z,70.80
2018-12-10T11:40:13.482Z,71.20
2018-12-10T11:42:41.786Z,63.10
2018-12-10T11:45:10.095Z,63.40
2018-12-10T11:47:38.394Z,66.00
2018-12-10T11:50:06.649Z,71.80
2018-12-10T11:52:34.910Z,77.80
2018-12-10T11:55:03.125Z,82.90
2018-12-10T11:57:31.359Z,85.40
2018-12-10T11:59:59.560Z,85.80
2018-12-10T12:02:29.876Z,86.90
2018-12-10T12:04:58.044Z,88.40
2018-12-10T12:07:26.290Z,90.10
2018-12-10T12:09:54.679Z,90.60
2018-12-10T12:12:22.950Z,90.30
2018-12-10T12:14:51.217Z,91.60
2018-12-10T12:17:19.512Z,93.40
2018-12-10T12:19:47.717Z,94.70
2018-12-10T12:22:15.959Z,95.60
2018-12-10T12:24:44.233Z,96.40
2018-12-10T12:27:12.480Z,97.10
2018-12-10T12:29:40.729Z,97.70
2018-12-10T12:32:08.954Z,97.20
2018-12-10T12:34:37.166Z,98.10
2018-12-10T12:37:05.439Z,98.80
2018-12-10T12:39:33.673Z,98.60
2018-12-10T12:42:01.870Z,98.90
2018-12-10T12:44:30.167Z,97.50
2018-12-10T12:46:58.317Z,95.90
2018-12-10T12:49:28.255Z,96.10
2018-12-10T12:51:56.539Z,96.10
2018-12-10T12:54:24.747Z,96.00
2018-12-10T12:56:52.955Z,95.20
2018-12-10T12:59:21.177Z,96.10
2018-12-10T13:01:49.718Z,93.30
2018-12-10T13:04:18.129Z,89.50
2018-12-10T13:06:46.371Z,90.40
2018-12-10T13:09:21.604Z,91.90
2018-12-10T13:11:44.829Z,86.80
2018-12-10T13:14:12.936Z,85.10
2018-12-10T13:16:49.215Z,82.50
2018-12-10T13:19:11.414Z,82.90
2018-12-10T13:21:39.701Z,82.10
2018-12-10T13:24:07.962Z,83.90
2018-12-10T13:26:36.167Z,83.60
2018-12-10T13:29:04.485Z,85.30
2018-12-10T13:31:32.755Z,81.70
2018-12-10T13:34:00.938Z,79.70
2018-12-10T13:36:29.084Z,82.80
2018-12-10T13:38:57.306Z,80.00
2018-12-10T13:41:25.762Z,78.80
2018-12-10T13:43:53.941Z,80.40
2018-12-10T13:46:22.171Z,80.60
2018-12-10T13:48:50.514Z,80.60
2018-12-10T13:51:18.762Z,78.20
2018-12-10T13:53:47.102Z,79.50
2018-12-10T13:56:15.350Z,78.70
2018-12-10T13:58:43.577Z,77.10
2018-12-10T14:01:11.906Z,78.40
2018-12-10T14:03:40.074Z,78.70
2018-12-10T14:06:08.337Z,74.30
2018-12-10T14:08:36.613Z,77.80
2018-12-10T14:11:04.930Z,75.30
2018-12-10T14:13:33.166Z,75.90
2018-12-10T14:16:01.462Z,76.80
2018-12-10T14:18:29.775Z,75.70
2018-12-10T14:20:58.010Z,73.50
2018-12-10T14:23:26.202Z,72.10
2018-12-10T14:25:54.426Z,68.00
2018-12-10T14:28:22.642Z,70.40
2018-12-10T14:30:51.032Z,68.20
2018-12-10T14:33:19.322Z,71.60
2018-12-10T14:35:47.595Z,71.60
2018-12-10T14:38:15.827Z,72.40
2018-12-10T14:40:44.244Z,70.40
2018-12-10T14:43:12.494Z,67.20
2018-12-10T14:45:40.761Z,69.70
2018-12-10T14:48:08.946Z,71.30
2018-12-10T14:50:37.174Z,65.30
2018-12-10T14:53:05.377Z,64.90
2018-12-10T14:55:33.744Z,65.80
2018-12-10T14:58:02.060Z,66.20
2018-12-10T15:00:30.345Z,67.10
2018-12-10T15:02:58.551Z,65.10
2018-12-10T15:05:26.775Z,68.10
2018-12-10T15:07:54.941Z,66.80
2018-12-10T15:10:23.476Z,65.10
2018-12-10T15:12:51.965Z,63.50
2018-12-10T15:15:20.257Z,66.80
2018-12-10T15:17:48.492Z,70.00
2018-12-10T15:20:16.690Z,69.80
2018-12-10T15:22:44.987Z,69.70
2018-12-10T15:25:13.214Z,67.00
2018-12-10T15:27:41.398Z,70.10
2018-12-10T15:30:11.297Z,72.70
2018-12-10T15:32:39.485Z,72.40
2018-12-10T15:35:07.803Z,68.60
2018-12-10T15:37:36.161Z,70.50
2018-12-10T15:40:05.693Z,67.70
2018-12-10T15:42:33.882Z,65.30
2018-12-10T15:45:02.118Z,66.00
2018-12-10T15:47:30.311Z,65.20
2018-12-10T15:49:58.532Z,65.20
2018-12-10T15:52:26.757Z,65.40
2018-12-10T15:54:54.992Z,64.30
2018-12-10T15:57:23.196Z,67.50
2018-12-10T15:59:51.383Z,64.50
2018-12-10T16:02:19.779Z,65.30
2018-12-10T16:04:49.158Z,65.40
2018-12-10T16:07:17.425Z,64.20
2018-12-10T16:09:45.619Z,63.70
2018-12-10T16:12:13.883Z,65.80
2018-12-10T16:14:42.094Z,65.00
2018-12-10T16:17:10.349Z,65.30
2018-12-10T16:19:38.626Z,59.80
2018-12-10T16:22:06.939Z,63.00
2018-12-10T16:24:35.141Z,62.00
2018-12-10T16:27:03.692Z,62.90
2018-12-10T16:29:32.147Z,59.70
2018-12-10T16:32:00.291Z,59.70
2018-12-10T16:34:28.548Z,62.10
2018-12-10T16:36:56.988Z,61.90
2018-12-10T16:39:25.258Z,61.20
2018-12-10T16:41:53.414Z,60.40
2018-12-10T16:44:21.696Z,61.90
2018-12-10T16:46:51.359Z,62.30
2018-12-10T16:49:26.840Z,63.00
2018-12-10T16:51:55.793Z,64.20
2018-12-10T16:54:24.103Z,63.60
2018-12-10T16:56:52.466Z,61.80
2018-12-10T16:59:22.575Z,61.40
2018-12-10T17:01:51.954Z,61.70
2018-12-10T17:04:20.702Z,63.30
2018-12-10T17:06:49.106Z,64.70
2018-12-10T17:09:17.611Z,61.10
2018-12-10T17:11:46.105Z,61.20
2018-12-10T17:14:14.914Z,62.50
2018-12-10T17:16:43.430Z,61.50
2018-12-10T17:19:12.342Z,61.80
2018-12-10T17:21:43.410Z,59.90
2018-12-10T17:24:11.635Z,59.80
2018-12-10T17:26:40.025Z,59.80
2018-12-10T17:29:08.345Z,61.60
2018-12-10T17:31:36.794Z,63.00
2018-12-10T17:34:05.069Z,62.20
2018-12-10T17:36:33.346Z,62.70
2018-12-10T17:39:01.623Z,61.00
2018-12-10T17:41:29.992Z,65.50
2018-12-10T17:43:58.531Z,67.90
2018-12-10T17:46:26.860Z,70.30
2018-12-10T17:48:55.127Z,72.70
2018-12-10T17:51:23.315Z,73.80
2018-12-10T17:53:51.872Z,75.40
2018-12-10T17:56:20.119Z,77.50
2018-12-10T17:58:48.395Z,78.90
2018-12-10T18:01:16.626Z,81.20
2018-12-10T18:03:44.805Z,80.40
2018-12-10T18:06:25.704Z,82.70
2018-12-10T18:08:54.039Z,83.80
2018-12-10T18:11:22.318Z,84.80
2018-12-10T18:13:50.657Z,84.80
2018-12-10T18:16:19.019Z,85.80
2018-12-10T18:18:48.434Z,87.20
2018-12-10T18:21:16.724Z,87.40
2018-12-10T18:23:44.898Z,88.20
2018-12-10T18:26:13.154Z,89.80
2018-12-10T18:28:41.525Z,91.00
2018-12-10T18:31:09.885Z,91.80
2018-12-10T18:33:38.191Z,92.30
2018-12-10T18:36:06.751Z,92.50
2018-12-10T18:38:34.999Z,91.90
2018-12-10T18:41:03.259Z,91.50
2018-12-10T18:43:31.418Z,91.00
2018-12-10T18:45:59.858Z,90.60
2018-12-10T18:48:28.142Z,88.40
2018-12-10T18:50:56.426Z,89.10
2018-12-10T18:53:24.669Z,89.00
2018-12-10T18:55:52.845Z,90.40
2018-12-10T18:58:21.142Z,90.20
2018-12-10T19:00:49.788Z,91.20
2018-12-10T19:03:18.049Z,91.70
2018-12-10T19:05:46.311Z,92.20
2018-12-10T19:08:14.587Z,93.30
2018-12-10T19:10:42.887Z,93.10
2018-12-10T19:13:11.163Z,92.70
2018-12-10T19:15:39.395Z,92.70
2018-12-10T19:18:07.785Z,92.90
2018-12-10T19:20:36.024Z,94.10
2018-12-10T19:23:04.382Z,94.90
2018-12-10T19:25:32.695Z,95.40
2018-12-10T19:28:00.952Z,95.70
2018-12-10T19:30:29.257Z,95.00
2018-12-10T19:32:57.620Z,94.70
2018-12-10T19:35:26.065Z,94.00
2018-12-10T19:37:54.397Z,93.10
2018-12-10T19:40:22.720Z,93.70
2018-12-10T19:42:50.849Z,93.70
2018-12-10T19:45:19.130Z,94.80
2018-12-10T19:47:47.411Z,94.20
2018-12-10T19:50:15.635Z,94.10
2018-12-10T19:52:43.836Z,93.80
2018-12-10T19:55:12.129Z,94.70
2018-12-10T19:57:40.344Z,95.20
2018-12-10T20:00:09.089Z,95.20
2018-12-10T20:02:37.381Z,94.90
2018-12-10T20:05:06.096Z,94.00
2018-12-10T20:07:34.298Z,93.60
2018-12-10T20:10:02.626Z,92.10
2018-12-10T20:12:30.898Z,93.50
2018-12-10T20:14:59.161Z,94.50
2018-12-10T20:17:27.438Z,95.80
2018-12-10T20:19:55.603Z,95.80
2018-12-10T20:22:23.876Z,96.00
2018-12-10T20:24:52.161Z,95.30
2018-12-10T20:27:20.755Z,95.40
2018-12-10T20:29:49.103Z,95.30
2018-12-10T20:32:17.353Z,95.50
2018-12-10T20:34:45.618Z,95.60
2018-12-10T20:37:13.969Z,94.70
2018-12-10T20:39:42.161Z,95.40
2018-12-10T20:42:10.372Z,96.10
2018-12-10T20:44:38.679Z,96.40
2018-12-10T20:47:06.941Z,95.50
2018-12-10T20:49:35.137Z,95.80
2018-12-10T20:52:03.334Z,96.10
2018-12-10T20:54:31.477Z,96.10
2018-12-10T20:56:59.802Z,97.00
2018-12-10T20:59:28.035Z,96.70
2018-12-10T21:01:56.170Z,96.60
2018-12-10T21:04:24.428Z,95.10
2018-12-10T21:06:52.634Z,95.60
2018-12-10T21:09:20.807Z,96.70
2018-12-10T21:11:49.017Z,96.70
2018-12-10T21:14:17.207Z,96.80
2018-12-10T21:16:45.417Z,95.40
2018-12-10T21:19:13.633Z,95.70
2018-12-10T21:21:41.834Z,95.80
2018-12-10T21:24:10.178Z,95.20
2018-12-10T21:26:38.443Z,94.80
2018-12-10T21:29:06.658Z,94.30
2018-12-10T21:31:34.814Z,94.40
2018-12-10T21:34:03.070Z,94.20
2018-12-10T21:36:31.213Z,93.60
2018-12-10T21:38:59.555Z,93.50
2018-12-10T21:41:27.807Z,92.60
2018-12-10T21:43:56.040Z,92.60
2018-12-10T21:46:24.383Z,93.50
2018-12-10T21:48:52.628Z,93.70
2018-12-10T21:51:20.884Z,94.00
2018-12-10T21:53:49.103Z,93.60
2018-12-10T21:56:17.396Z,92.70
2018-12-10T21:58:45.602Z,92.40
2018-12-10T22:01:13.863Z,92.70
2018-12-10T22:03:42.090Z,92.80
2018-12-10T22:06:10.333Z,92.00
2018-12-10T22:08:38.524Z,91.20
2018-12-10T22:11:06.816Z,91.30
2018-12-10T22:13:35.032Z,90.50
2018-12-10T22:16:03.258Z,89.50
2018-12-10T22:18:31.500Z,88.70
2018-12-10T22:20:59.729Z,88.40
2018-12-10T22:23:27.926Z,88.00
2018-12-10T22:25:56.136Z,88.00
2018-12-10T22:28:31.152Z,89.00
2018-12-10T22:30:59.376Z,88.70
2018-12-10T22:33:27.622Z,88.30
2018-12-10T22:35:55.856Z,87.40
2018-12-10T22:38:24.135Z,89.90
2018-12-10T22:40:52.433Z,89.90
2018-12-10T22:43:20.695Z,90.00
2018-12-10T22:45:48.899Z,91.90
2018-12-10T22:48:17.130Z,92.70
2018-12-10T22:50:45.411Z,93.80
2018-12-10T22:53:13.562Z,95.50
2018-12-10T22:55:41.938Z,96.30
2018-12-10T22:58:10.182Z,97.00
2018-12-10T23:00:47.064Z,97.50
2018-12-10T23:03:15.202Z,97.40
2018-12-10T23:05:43.459Z,97.20
2018-12-10T23:08:11.683Z,97.40
2018-12-10T23:10:39.979Z,96.20
2018-12-10T23:13:08.195Z,96.70
2018-12-10T23:15:36.523Z,97.10
2018-12-10T23:18:04.775Z,97.20
2018-12-10T23:20:32.993Z,97.20
2018-12-10T23:23:01.189Z,96.40
2018-12-10T23:25:29.739Z,97.00
2018-12-10T23:27:57.990Z,97.50
2018-12-10T23:30:26.278Z,96.40
2018-12-10T23:32:54.454Z,96.70
2018-12-10T23:35:22.673Z,96.60
2018-12-10T23:37:50.916Z,96.60
2018-12-10T23:40:19.246Z,97.80
2018-12-10T23:42:52.898Z,98.70
2018-12-10T23:45:21.126Z,99.50
2018-12-10T23:47:49.325Z,99.70
2018-12-10T23:50:17.525Z,99.90
2018-12-10T23:52:45.771Z,99.90
2018-12-10T23:55:14.030Z,99.70
2018-12-10T23:57:42.325Z,99.90
